VOTR

Tiruchirapally Civil Airport

Tiruchirappally, India
TAF VOTR 141700Z 1418/1524 07005KT 3000 BR FEW018 TEMPO 1421/1503 1500 BR BECMG 1505/1506 6000 BECMG 1512/1513 5000 HZ BECMG 1518/1519 3000 BR TEMPO 1521/1524 1500 BR
Issued Valid From Valid To
Dec-14 @ 17:00 UTC
(5 hours ago)
Dec-14 @ 18:00 UTC
(4 hours ago)
Dec-16 @ 00:00 UTC
(-1 days ago)
Dec-14 @ 18:00 to Dec-15 @ 05:00
TAF VOTR 141700Z 1418/1524 07005KT 3000 BR FEW018
Wind Visibility Clouds Conditions
70° at 5 knots 2,993 meters
  • Few at 1,800' AGL
  • Mist
Temporary Dec-14 @ 21:00 to Dec-15 @ 03:00
TEMPO 1421/1503 1500 BR
Visibility Conditions
1,497 meters
  • Mist
Becoming Dec-15 @ 05:00 to Dec-15 @ 12:00
BECMG 1505/1506 6000
Wind Visibility Clouds Conditions
70° at 5 knots 6,003 meters
  • Few at 1,800' AGL
  • Mist
Becoming Dec-15 @ 12:00 to Dec-15 @ 18:00
BECMG 1512/1513 5000 HZ
Wind Visibility Clouds Conditions
70° at 5 knots 5,005 meters
  • Few at 1,800' AGL
  • Haze
Becoming Dec-15 @ 18:00 to Dec-16 @ 00:00
BECMG 1518/1519 3000 BR
Wind Visibility Clouds Conditions
70° at 5 knots 2,993 meters
  • Few at 1,800' AGL
  • Mist
Temporary Dec-15 @ 21:00 to Dec-16 @ 00:00
TEMPO 1521/1524 1500 BR
Visibility Conditions
1,497 meters
  • Mist
TAF VOTR 141700Z 1418/1524 07005KT 3000 BR FEW018 TEMPO 1421/1503 1500 BR BECMG 1505/1506 6000 BECMG 1512/1513 5000 HZ BECMG 1518/1519 3000 BR TEMPO 1521/1524 1500 BR
Issued Dec-14 @ 17:00 UTC
(5 hours ago)
Valid From Dec-14 @ 18:00 UTC
(4 hours ago)
Valid To Dec-16 @ 00:00 UTC
(-1 days ago)
Dec-14 @ 18:00 - Dec-15 @ 05:00
Wind Visibility
70° at 5 knots 2,993 meters
Clouds
  • Few at 1,800' AGL
Conditions
  • Mist
Temporary Dec-14 @ 21:00 - Dec-15 @ 03:00
Conditions
  • Mist
Becoming Dec-15 @ 05:00 - Dec-15 @ 12:00
Wind Visibility
70° at 5 knots 6,003 meters
Clouds
  • Few at 1,800' AGL
Conditions
  • Mist
Becoming Dec-15 @ 12:00 - Dec-15 @ 18:00
Wind Visibility
70° at 5 knots 5,005 meters
Clouds
  • Few at 1,800' AGL
Conditions
  • Haze
Becoming Dec-15 @ 18:00 - Dec-16 @ 00:00
Wind Visibility
70° at 5 knots 2,993 meters
Clouds
  • Few at 1,800' AGL
Conditions
  • Mist
Temporary Dec-15 @ 21:00 - Dec-16 @ 00:00
Conditions
  • Mist